ASN logo
Last updated: 29 November 2020
Statuts:Préliminaire
Date:lundi 3 février 2020
Heure:03:06
Type/Sous-type:Silhouette image of generic B744 model; specific model in this crash may look slightly different
Boeing 747-412BCF
Compagnie:Kalitta Air
Immatriculation: N703CK
Numéro de série: 24226/809
Année de Fabrication: 1990-08-23 (29 years 6 months)
Moteurs: 4 Pratt & Whitney PW4056
Equipage:victimes: 0 / à bord: 7
Passagers:victimes: 0 / à bord: 0
Total:victimes: 0 / à bord: 7
Dégats de l'appareil: Substantiels
Lieu de l'accident:Los Angeles International Airport, CA (LAX) (   Etats-Unis d'Amérique)
Phase de vol: Au décollage (TOF)
Nature:Cargo
Aéroport de départ:Los Angeles International Airport, CA (LAX/KLAX), Etats-Unis d'Amérique
Aéroport de destination:Honolulu-Daniel K. Inouye International Airport, HI (HNL/PHNL), Etats-Unis d'Amérique
Numéro de vol:K4368
Détails:
Kalitta Air Flight 368, a Boeing 747-412BCF, struck a trash bin on takeoff from runway 25R at Los Angeles Airport, USA. The takeoff was aborted and the aircraft came to a stop on the runway near taxiway B6. The tower controller reported there was "an excessive smoke" coming from the nose gear. The flight crew shut down the aircraft on the runway to allow ARFF to inspect the aircraft. It appeared that both tyres of the nose gear had blown as result.
Weather reported to the crew during the clearance for takeoff was Wind 330 at 14 knots, gusting to 26 knots.

The accident aircraft was ferried to Kalitta's Oscoda Airport Storage and Maintenance Base on March 5, 2020.

Accident investigation:
Investigating agency: NTSB
Status: Investigation ongoing
Accident number: DCA20CA077

Sources:
» FAA
» LiveATC.net

METAR Weather report:
09:53 UTC / 01:53 local time:
KLAX 030953Z 34011G24KT 320V040 10SM SCT040 BKN050 BKN150 13/M06 A2985 RMK AO2 PK WND 36028/0942 SLP105 T01281061=

10:53 UTC / 02:53 local time:
KLAX 031053Z 35016G24KT 10SM FEW040 FEW065 SCT150 12/M07 A2984 RMK AO2 PK WND 33030/1017 SLP101 T01221072=

11:53 UTC / 03:53 local time:
KLAX 031153Z 34015G28KT 10SM FEW045 FEW150 12/M06 A2985 RMK AO2 PK WND 34030/1128 SLP105 T01171061 10161 20117 55002=


Photos

Add your photo of this accident or aircraft

Video, social media

Plan
Ce plan montre l'aéroport de départ ainsi que la supposée destination du vol. La ligne fixe reliant les deux aéroports n'est pas le plan de vol exact.
La distance entre Los Angeles International Airport, CA et Honolulu-Daniel K. Inouye International Airport, HI est de 4082 km (2551 miles).
Accident location: Approximate; accuracy within a few kilometers.

Les informations ci-dessus ne représentent pas l'opinion de la 'Flight Safety Foundation' ou de 'Aviation Safety Network' sur les causes de l'accident. Ces informations prélimimaires sont basées sur les faits tel qu'ils sont connus à ce jour.
languages: languages

Share